Flight Track Log - Related Links

Times and Time Zones

All times are in EST time to prevent confusion due to time zone crossing. See the FLG4262 flight status page for this flight to view local times or setup timezone preferences in your user account.

Time Position Orientation Groundspeed Altitude Reporting Facility
EST Latitude Longitude Course Direction KTS MPH feet Rate Location/Type
Sun 03:54:43 PM 42.2050 -83.3528 93° East 152 175 1,400  Level Cleveland Center
Sun 03:56:02 PM 42.1342 -83.3486 178° South 220 253 4,200 1,820 Climbing Cleveland Center
Sun 03:56:12 PM 42.1358 -83.3467 41° Northeast 196 226 4,100 2,323 Descending Cleveland Center
Sun 03:57:04 PM 42.0844 -83.2881 140° Southeast 290 334 6,600 2,710 Climbing Cleveland Center
Sun 03:57:14 PM 42.0778 -83.2717 119° Southeast 268 308 6,900 2,800 Climbing Cleveland Center
Sun 03:58:04 PM 42.0814 -83.1892 87° East 276 318 9,400 2,806 Climbing Cleveland Center
Sun 03:58:16 PM 42.0878 -83.1700 66° East 281 323 9,800 2,432 Climbing Cleveland Center
Sun 03:59:18 PM 42.1253 -83.0769 61° Northeast 285 328 12,400 1,790 Climbing Cleveland Center
Sun 04:00:00 PM 42.2378 -82.4302 93° East  Level Estimated
Sun 04:00:20 PM 42.1672 -82.9711 62° Northeast 324 373 13,500  Level Cleveland Center
Sun 04:01:22 PM 42.2147 -82.8492 62° Northeast 365 420 14,800 1,500 Climbing Cleveland Center
Sun 04:02:24 PM 42.2636 -82.7206 63° Northeast 385 443 16,600 1,790 Climbing Cleveland Center
Sun 04:03:26 PM 42.3231 -82.5650 63° Northeast 391 450 18,500 1,403 Climbing Cleveland Center
Sun 04:04:28 PM 42.3653 -82.4186 69° East 435 501 19,500 1,016 Climbing Cleveland Center
Sun 04:05:30 PM 42.3594 -82.2436 93° East 467 537 20,600 1,056 Climbing Cleveland Center
Sun 04:06:33 PM 42.3514 -82.0517 93° East 482 555 21,700 1,056 Climbing Cleveland Center
Sun 04:07:35 PM 42.3433 -81.8664 93° East 488 562 22,800 919 Climbing Cleveland Center
Sun 04:08:37 PM 42.3347 -81.6758 93° East 499 574 23,600 726 Climbing Cleveland Center
Sun 04:09:39 PM 42.3253 -81.4822 94° East 507 583 24,300 629 Climbing Cleveland Center
Sun 04:10:41 PM 42.3158 -81.2819 94° East 522 601 24,900 339 Climbing Cleveland Center
Sun 04:11:43 PM 42.3042 -81.0439 94° East 536 617 25,000  Climbing Cleveland Center
Sun 04:12:45 PM 42.2919 -80.8322 94° East 553 636 24,900 -1,306 Descending Cleveland Center
Sun 04:13:47 PM 42.2817 -80.6297 94° East 541 623 22,300 -1,887 Descending Cleveland Center
Sun 04:14:49 PM 42.2706 -80.4411 94° East 505 581 21,000 -629 Descending Cleveland Center
Sun 04:15:51 PM 42.2606 -80.2544 94° East 496 571 21,000  Level Cleveland Center
Sun 04:16:53 PM 42.2581 -80.0664 91° East 497 572 21,000  Level Cleveland Center
Sun 04:17:55 PM 42.2597 -79.8717 89° East 498 573 21,000  Level Cleveland Center
Sun 04:18:57 PM 42.2600 -79.6864 90° East 495 570 21,000  Level Cleveland Center
Sun 04:20:00 PM 42.2608 -79.4992 90° East 500 575 21,000  Level Cleveland Center
Sun 04:21:02 PM 42.2608 -79.2764 90° East 496 571 21,000  Level Cleveland Center
Sun 04:22:04 PM 42.2603 -79.0894 90° East 500 575 21,000  Level Cleveland Center
Sun 04:23:06 PM 42.2600 -78.9036 90° East 497 572 21,000  Level Cleveland Center
Sun 04:24:08 PM 42.2578 -78.7064 91° East 484 557 21,000  Level Cleveland Center
Sun 04:25:10 PM 42.2575 -78.5297 90° East 475 547 21,000  Level Cleveland Center
Sun 04:26:12 PM 42.2556 -78.3544 91° East 471 542 21,000  Level Cleveland Center
Sun 04:27:14 PM 42.2539 -78.1764 91° East 476 548 21,000  Level Cleveland Center
Sun 04:28:16 PM 42.2528 -77.9997 90° East 476 548 21,000  Level Cleveland Center
Sun 04:29:18 PM 42.2500 -77.7922 91° East 470 541 21,000  Level Cleveland Center
Sun 04:30:20 PM 42.2478 -77.6222 91° East 462 532 21,000 -629 Level Cleveland Center
Sun 04:31:22 PM 42.2447 -77.4528 91° East 458 527 19,700 -1,500 Descending Cleveland Center
Sun 04:32:24 PM 42.2411 -77.2886 92° East 446 513 17,900 -1,306 Descending Cleveland Center
Sun 04:33:26 PM 42.2381 -77.1308 91° East 427 491 17,000 -968 Descending Cleveland Center
Sun 04:34:28 PM 42.2344 -76.9397 91° East 428 493 15,900 -1,403 Descending Cleveland Center
Sun 04:35:30 PM 42.2306 -76.7894 92° East 410 472 14,100 -1,887 Descending Cleveland Center
Sun 04:36:32 PM 42.2272 -76.6456 92° East 389 448 12,000 -1,597 Descending Cleveland Center
Sun 04:37:34 PM 42.2242 -76.5144 92° East 354 407 10,800 -1,548 Descending Cleveland Center
Sun 04:38:36 PM 42.2000 -76.3908 105° East 328 377 8,800 -1,839 Descending Cleveland Center
Sun 04:39:38 PM 42.1633 -76.2839 115° Southeast 317 365 7,000 -1,590 Descending Cleveland Center
Sun 04:40:33 PM 42.1267 -76.1869 117° Southeast 316 364 5,700 -1,436 Descending New York Center
Sun 04:41:35 PM 42.0939 -76.0864 114° Southeast 305 351 4,200 -1,050 Descending New York Center
Sun 04:42:33 PM 42.0942 -75.9831 90° East 277 319 3,600 -508 Descending New York Center
Sun 04:43:33 PM 42.1258 -75.9242 54° Northeast 230 265 3,200 -496 Descending New York Center
Sun 04:44:34 PM 42.1628 -75.9381 344° North 137 158 2,600 -541 Descending New York Center
Sun 04:45:35 PM 42.1958 -75.9436 353° North 107 123 2,100 -492 Descending New York Center

Login

Don't have an account? Register now (free) for customized features, flight alerts, and more!